createdAt,value
2023-03-19T00:00:37.331Z,20.73
2023-03-19T00:03:03.968Z,20.77
2023-03-19T00:05:30.598Z,20.70
2023-03-19T00:07:57.079Z,20.71
2023-03-19T00:10:23.610Z,20.77
2023-03-19T00:12:50.133Z,20.77
2023-03-19T00:15:16.717Z,20.76
2023-03-19T00:17:43.787Z,20.77
2023-03-19T00:20:12.373Z,20.73
2023-03-19T00:22:39.982Z,20.75
2023-03-19T00:25:08.415Z,20.78
2023-03-19T00:27:36.157Z,20.83
2023-03-19T00:30:03.046Z,20.77
2023-03-19T00:32:30.121Z,20.67
2023-03-19T00:34:56.766Z,20.77
2023-03-19T00:37:23.376Z,20.77
2023-03-19T00:39:50.242Z,20.75
2023-03-19T00:42:16.850Z,20.78
2023-03-19T00:44:43.426Z,20.76
2023-03-19T00:47:09.981Z,20.78
2023-03-19T00:49:37.079Z,20.75
2023-03-19T00:52:03.657Z,20.70
2023-03-19T00:54:32.223Z,20.76
2023-03-19T00:56:59.048Z,20.74
2023-03-19T00:59:25.802Z,20.71
2023-03-19T01:01:52.582Z,20.69
2023-03-19T01:04:19.401Z,20.74
2023-03-19T01:06:46.196Z,20.69
2023-03-19T01:09:12.823Z,20.64
2023-03-19T01:11:39.326Z,20.67
2023-03-19T01:14:06.339Z,20.65
2023-03-19T01:16:34.702Z,20.67
2023-03-19T01:19:04.399Z,20.67
2023-03-19T01:21:31.426Z,20.62
2023-03-19T01:23:58.464Z,20.62
2023-03-19T01:26:27.294Z,20.68
2023-03-19T01:28:58.521Z,20.78
2023-03-19T01:31:26.226Z,20.70
2023-03-19T01:34:02.081Z,20.76
2023-03-19T01:36:41.361Z,20.70
2023-03-19T01:39:08.290Z,20.67
2023-03-19T01:41:35.411Z,20.59
2023-03-19T01:44:34.183Z,20.65
2023-03-19T01:47:23.464Z,20.56
2023-03-19T01:50:28.727Z,20.70
2023-03-19T01:53:17.785Z,20.64
2023-03-19T01:55:59.515Z,20.60
2023-03-19T01:58:35.910Z,20.70
2023-03-19T02:01:29.454Z,20.55
2023-03-19T02:03:57.242Z,20.63
2023-03-19T02:06:30.194Z,20.67
2023-03-19T02:08:58.682Z,20.70
2023-03-19T02:11:26.311Z,20.63
2023-03-19T02:13:53.146Z,20.56
2023-03-19T02:16:20.297Z,20.67
2023-03-19T02:18:47.831Z,20.69
2023-03-19T02:21:19.027Z,20.62
2023-03-19T02:23:59.017Z,20.62
2023-03-19T02:26:43.359Z,20.57
2023-03-19T02:29:10.140Z,20.53
2023-03-19T02:31:37.314Z,20.54
2023-03-19T02:34:07.878Z,20.63
2023-03-19T02:36:44.286Z,20.55
2023-03-19T02:39:24.992Z,20.64
2023-03-19T02:41:54.537Z,20.52
2023-03-19T02:44:21.914Z,20.56
2023-03-19T02:46:50.907Z,20.48
2023-03-19T02:49:17.655Z,20.59
2023-03-19T02:51:44.143Z,20.55
2023-03-19T02:54:10.742Z,20.52
2023-03-19T02:56:37.327Z,20.51
2023-03-19T02:59:05.190Z,20.60
2023-03-19T03:01:31.781Z,20.53
2023-03-19T03:03:58.272Z,20.65
2023-03-19T03:06:24.821Z,20.54
2023-03-19T03:08:52.102Z,20.47
2023-03-19T03:11:18.738Z,20.57
2023-03-19T03:13:45.210Z,20.52
2023-03-19T03:16:12.623Z,20.54
2023-03-19T03:18:39.274Z,20.47
2023-03-19T03:21:05.950Z,20.49
2023-03-19T03:23:33.005Z,20.44
2023-03-19T03:25:59.576Z,20.49
2023-03-19T03:28:26.219Z,20.57
2023-03-19T03:30:58.749Z,20.48
2023-03-19T03:33:25.623Z,20.49
2023-03-19T03:35:52.451Z,20.53
2023-03-19T03:38:19.188Z,20.57
2023-03-19T03:40:45.792Z,20.52
2023-03-19T03:43:12.373Z,20.61
2023-03-19T03:45:39.548Z,20.58
2023-03-19T03:48:07.143Z,20.45
2023-03-19T03:50:34.121Z,20.47
2023-03-19T03:53:06.454Z,20.54
2023-03-19T03:55:33.079Z,20.48
2023-03-19T03:57:59.709Z,20.39
2023-03-19T04:00:26.695Z,20.40
2023-03-19T04:02:53.494Z,20.37
2023-03-19T04:05:20.243Z,20.47
2023-03-19T04:07:46.912Z,20.49
2023-03-19T04:10:14.182Z,20.43
2023-03-19T04:12:41.457Z,20.34
2023-03-19T04:15:11.003Z,20.25
2023-03-19T04:17:40.484Z,20.28
2023-03-19T04:20:07.733Z,20.42
2023-03-19T04:22:34.510Z,20.39
2023-03-19T04:25:01.205Z,20.45
2023-03-19T04:27:27.851Z,20.42
2023-03-19T04:29:54.805Z,20.44
2023-03-19T04:32:21.536Z,20.46
2023-03-19T04:34:48.472Z,20.51
2023-03-19T04:37:15.053Z,20.55
2023-03-19T04:39:48.334Z,20.55
2023-03-19T04:42:15.418Z,20.53
2023-03-19T04:44:51.030Z,20.52
2023-03-19T04:47:17.678Z,20.55
2023-03-19T04:49:54.187Z,20.54
2023-03-19T04:52:22.762Z,20.53
2023-03-19T04:54:49.819Z,20.58
2023-03-19T04:57:17.129Z,20.60
2023-03-19T04:59:46.431Z,20.55
2023-03-19T05:02:15.571Z,20.53
2023-03-19T05:04:42.913Z,20.59
2023-03-19T05:07:12.608Z,20.53
2023-03-19T05:09:40.654Z,20.54
2023-03-19T05:12:07.219Z,20.51
2023-03-19T05:14:40.651Z,20.58
2023-03-19T05:17:17.995Z,20.57
2023-03-19T05:20:02.397Z,20.57
2023-03-19T05:22:31.933Z,20.62
2023-03-19T05:24:58.525Z,20.61
2023-03-19T05:27:27.402Z,20.64
2023-03-19T05:30:18.389Z,20.57
2023-03-19T05:33:03.600Z,20.61
2023-03-19T05:35:41.769Z,20.58
2023-03-19T05:38:23.344Z,20.62
2023-03-19T05:41:02.943Z,20.63
2023-03-19T05:43:36.016Z,20.65
2023-03-19T05:46:06.615Z,20.65
2023-03-19T05:48:33.725Z,20.60
2023-03-19T05:51:02.592Z,20.53
2023-03-19T05:53:34.248Z,20.57
2023-03-19T05:56:30.455Z,20.60
2023-03-19T05:59:15.558Z,20.48
2023-03-19T06:01:48.462Z,20.55
2023-03-19T06:04:15.471Z,20.59
2023-03-19T06:06:42.303Z,20.60
2023-03-19T06:09:09.169Z,20.57
2023-03-19T06:11:40.528Z,20.66
2023-03-19T06:14:27.010Z,20.67
2023-03-19T06:17:25.299Z,20.62
2023-03-19T06:19:57.523Z,20.64
2023-03-19T06:22:24.318Z,20.65
2023-03-19T06:24:52.768Z,20.60
2023-03-19T06:27:20.057Z,20.60
2023-03-19T06:29:46.689Z,20.59
2023-03-19T06:32:19.010Z,20.60
2023-03-19T06:34:47.379Z,20.59
2023-03-19T06:37:14.414Z,20.57
2023-03-19T06:39:40.966Z,20.54
2023-03-19T06:42:07.612Z,20.61
2023-03-19T06:44:34.628Z,20.60
2023-03-19T06:47:01.177Z,20.61
2023-03-19T06:49:28.293Z,20.60
2023-03-19T06:51:54.790Z,20.59
2023-03-19T06:54:21.429Z,20.59
2023-03-19T06:56:49.015Z,20.42
2023-03-19T06:59:15.980Z,20.36
2023-03-19T07:01:42.761Z,20.44
2023-03-19T07:04:09.937Z,20.44
2023-03-19T07:06:36.523Z,20.29
2023-03-19T07:09:03.412Z,20.39
2023-03-19T07:11:30.147Z,20.32
2023-03-19T07:13:56.713Z,20.19
2023-03-19T07:16:23.218Z,20.20
2023-03-19T07:18:49.711Z,20.26
2023-03-19T07:21:16.695Z,20.36
2023-03-19T07:23:43.200Z,20.32
2023-03-19T07:26:09.725Z,20.39
2023-03-19T07:28:36.308Z,20.44
2023-03-19T07:31:02.836Z,20.47
2023-03-19T07:33:30.442Z,20.50
2023-03-19T07:35:57.052Z,20.45
2023-03-19T07:38:23.637Z,20.51
2023-03-19T07:41:01.432Z,20.52
2023-03-19T07:43:28.686Z,20.51
2023-03-19T07:45:55.390Z,20.46
2023-03-19T07:48:22.087Z,20.37
2023-03-19T07:50:51.281Z,20.39
2023-03-19T07:53:18.457Z,20.39
2023-03-19T07:55:45.299Z,20.32
2023-03-19T07:58:11.870Z,20.27
2023-03-19T08:00:38.381Z,20.29
2023-03-19T08:03:04.969Z,20.26
2023-03-19T08:05:31.587Z,20.26
2023-03-19T08:07:58.076Z,20.27
2023-03-19T08:10:24.728Z,20.21
2023-03-19T08:12:52.498Z,20.25
2023-03-19T08:15:18.968Z,20.24
2023-03-19T08:17:45.478Z,20.28
2023-03-19T08:20:14.429Z,20.29
2023-03-19T08:22:41.787Z,20.30
2023-03-19T08:25:09.505Z,20.30
2023-03-19T08:27:36.647Z,20.33
2023-03-19T08:30:07.196Z,20.41
2023-03-19T08:32:33.804Z,20.35
2023-03-19T08:35:00.421Z,20.34
2023-03-19T08:37:26.965Z,20.32
2023-03-19T08:39:53.532Z,20.32
2023-03-19T08:42:21.455Z,20.30
2023-03-19T08:44:48.358Z,20.35
2023-03-19T08:47:15.165Z,20.36
2023-03-19T08:49:41.828Z,20.41
2023-03-19T08:52:08.887Z,20.41
2023-03-19T08:54:36.215Z,20.43
2023-03-19T08:57:03.131Z,20.49
2023-03-19T08:59:31.433Z,20.46
2023-03-19T09:01:59.199Z,20.53
2023-03-19T09:04:26.063Z,20.51
2023-03-19T09:06:52.648Z,20.43
2023-03-19T09:09:21.527Z,20.42
2023-03-19T09:11:48.827Z,20.47
2023-03-19T09:14:16.726Z,20.47
2023-03-19T09:16:43.583Z,20.46
2023-03-19T09:19:10.336Z,20.44
2023-03-19T09:21:37.305Z,20.43
2023-03-19T09:24:04.438Z,20.40
2023-03-19T09:26:31.801Z,20.46
2023-03-19T09:28:58.841Z,20.53
2023-03-19T09:31:27.267Z,20.55
2023-03-19T09:33:55.754Z,20.61
2023-03-19T09:36:22.283Z,20.63
2023-03-19T09:38:48.731Z,20.68
2023-03-19T09:41:25.295Z,20.74
2023-03-19T09:44:00.644Z,20.74
2023-03-19T09:46:53.670Z,20.73
2023-03-19T09:49:26.515Z,20.63
2023-03-19T09:52:30.136Z,20.70
2023-03-19T09:55:00.576Z,20.68
2023-03-19T09:57:29.724Z,20.65
2023-03-19T09:59:56.552Z,20.66
2023-03-19T10:02:43.918Z,20.67
2023-03-19T10:05:32.234Z,20.71
2023-03-19T10:08:17.597Z,20.71
2023-03-19T10:10:54.580Z,20.64
2023-03-19T10:13:37.772Z,20.66
2023-03-19T10:16:05.665Z,20.67
2023-03-19T10:18:36.704Z,20.64
2023-03-19T10:21:11.266Z,20.62
2023-03-19T10:24:04.201Z,20.67
2023-03-19T10:26:36.624Z,20.61
2023-03-19T10:29:05.705Z,20.61
2023-03-19T10:31:43.861Z,20.51
2023-03-19T10:34:24.661Z,20.60
2023-03-19T10:37:03.882Z,20.71
2023-03-19T10:39:36.191Z,20.62
2023-03-19T10:42:11.717Z,20.60
2023-03-19T10:44:49.642Z,20.69
2023-03-19T10:47:20.011Z,20.71
2023-03-19T10:49:46.565Z,20.70
2023-03-19T10:52:24.365Z,20.72
2023-03-19T10:55:03.256Z,20.68
2023-03-19T10:57:31.953Z,20.65
2023-03-19T11:00:05.411Z,20.75
2023-03-19T11:02:32.425Z,20.77
2023-03-19T11:05:14.223Z,20.67
2023-03-19T11:07:40.899Z,20.70
2023-03-19T11:10:19.019Z,20.74
2023-03-19T11:12:57.921Z,20.80
2023-03-19T11:15:32.834Z,20.73
2023-03-19T11:18:06.153Z,20.83
2023-03-19T11:20:35.497Z,20.84
2023-03-19T11:23:07.787Z,20.79
2023-03-19T11:25:46.864Z,20.80
2023-03-19T11:28:20.485Z,20.79
2023-03-19T11:31:12.625Z,20.86
2023-03-19T11:33:42.938Z,20.91
2023-03-19T11:36:20.063Z,20.91
2023-03-19T11:39:22.947Z,20.72
2023-03-19T11:42:19.917Z,20.63
2023-03-19T11:45:33.686Z,20.70
2023-03-19T11:48:28.765Z,20.66
2023-03-19T11:51:17.545Z,20.63
2023-03-19T11:54:21.435Z,20.65
2023-03-19T11:57:03.937Z,20.67
2023-03-19T11:59:41.361Z,20.74
2023-03-19T12:02:42.754Z,20.70
2023-03-19T12:06:10.948Z,20.77
2023-03-19T12:09:28.538Z,20.76
2023-03-19T12:11:54.985Z,20.73
2023-03-19T12:14:34.302Z,20.67
2023-03-19T12:17:34.776Z,20.61
2023-03-19T12:20:16.445Z,20.58
2023-03-19T12:23:00.420Z,20.56
2023-03-19T12:25:46.368Z,20.60
2023-03-19T12:28:34.042Z,20.60
2023-03-19T12:31:00.588Z,20.51
2023-03-19T12:33:48.724Z,20.52
2023-03-19T12:36:22.283Z,20.61
2023-03-19T12:38:57.500Z,20.61
2023-03-19T12:41:27.106Z,20.47
2023-03-19T12:44:11.895Z,20.61
2023-03-19T12:47:03.626Z,20.64
2023-03-19T12:49:36.537Z,20.61
2023-03-19T12:52:22.384Z,20.69
2023-03-19T12:54:59.423Z,20.76
2023-03-19T12:57:35.769Z,20.76
2023-03-19T13:00:47.422Z,20.78
2023-03-19T13:03:22.471Z,20.75
2023-03-19T13:05:59.465Z,20.76
2023-03-19T13:08:47.341Z,20.75
2023-03-19T13:11:24.796Z,20.65
2023-03-19T13:13:58.605Z,20.71
2023-03-19T13:17:04.578Z,20.69
2023-03-19T13:19:44.058Z,20.66
2023-03-19T13:22:19.611Z,20.69
2023-03-19T13:24:48.137Z,20.76
2023-03-19T13:27:23.073Z,20.77
2023-03-19T13:30:10.458Z,20.82
2023-03-19T13:32:41.380Z,20.85
2023-03-19T13:35:26.706Z,20.82
2023-03-19T13:38:01.989Z,20.84
2023-03-19T13:40:41.036Z,20.94
2023-03-19T13:43:28.538Z,20.99
2023-03-19T13:46:13.308Z,21.00
2023-03-19T13:48:45.753Z,20.95
2023-03-19T13:51:12.190Z,20.89
2023-03-19T13:53:42.533Z,20.87
2023-03-19T13:56:30.298Z,20.91
2023-03-19T13:59:15.698Z,20.92
2023-03-19T14:01:47.360Z,20.90
2023-03-19T14:04:19.305Z,20.90
2023-03-19T14:06:49.039Z,20.86
2023-03-19T14:09:38.592Z,20.87
2023-03-19T14:12:21.181Z,20.96
2023-03-19T14:14:55.922Z,20.95
2023-03-19T14:17:31.121Z,21.06
2023-03-19T14:20:08.882Z,21.05
2023-03-19T14:23:06.332Z,21.07
2023-03-19T14:25:54.365Z,21.06
2023-03-19T14:28:35.257Z,21.06
2023-03-19T14:31:03.889Z,21.07
2023-03-19T14:34:12.738Z,21.07
2023-03-19T14:36:47.893Z,21.07
2023-03-19T14:39:31.225Z,21.10
2023-03-19T14:42:05.805Z,21.14
2023-03-19T14:44:35.141Z,21.17
2023-03-19T14:47:20.061Z,21.22
2023-03-19T14:49:56.850Z,21.15
2023-03-19T14:52:41.000Z,21.15
2023-03-19T14:55:14.427Z,21.15
2023-03-19T14:57:41.084Z,21.18
2023-03-19T15:00:14.649Z,21.24
2023-03-19T15:02:45.047Z,21.27
2023-03-19T15:05:26.868Z,21.25
2023-03-19T15:07:58.227Z,21.26
2023-03-19T15:10:29.008Z,21.21
2023-03-19T15:13:36.179Z,21.25
2023-03-19T15:16:24.236Z,21.26
2023-03-19T15:18:50.852Z,21.23
2023-03-19T15:21:17.872Z,21.20
2023-03-19T15:23:47.603Z,21.28
2023-03-19T15:26:15.836Z,21.26
2023-03-19T15:28:53.760Z,21.26
2023-03-19T15:31:37.500Z,21.25
2023-03-19T15:34:28.044Z,21.27
2023-03-19T15:37:04.081Z,21.23
2023-03-19T15:39:36.078Z,21.16
2023-03-19T15:42:04.830Z,21.21
2023-03-19T15:44:37.094Z,21.25
2023-03-19T15:47:07.148Z,21.23
2023-03-19T15:49:44.551Z,21.17
2023-03-19T15:52:14.761Z,21.23
2023-03-19T15:54:42.464Z,21.21
2023-03-19T15:57:11.579Z,21.21
2023-03-19T15:59:38.145Z,21.23
2023-03-19T16:02:17.901Z,21.20
2023-03-19T16:05:10.481Z,21.20
2023-03-19T16:07:43.250Z,21.23
2023-03-19T16:10:42.824Z,21.19
2023-03-19T16:13:28.041Z,21.16
2023-03-19T16:15:59.899Z,21.17
2023-03-19T16:18:29.806Z,21.18
2023-03-19T16:21:05.597Z,21.20
2023-03-19T16:23:42.843Z,21.19
2023-03-19T16:26:23.222Z,21.20
2023-03-19T16:29:07.357Z,21.17
2023-03-19T16:31:51.649Z,21.16
2023-03-19T16:34:23.359Z,21.17
2023-03-19T16:36:49.864Z,21.18
2023-03-19T16:39:36.886Z,21.17
2023-03-19T16:42:09.315Z,21.18
2023-03-19T16:44:40.307Z,21.19
2023-03-19T16:47:14.495Z,21.19
2023-03-19T16:49:41.018Z,21.16
2023-03-19T16:52:16.600Z,21.13
2023-03-19T16:54:43.863Z,21.13
2023-03-19T16:57:13.422Z,21.11
2023-03-19T16:59:40.188Z,21.13
2023-03-19T17:02:18.080Z,21.10
2023-03-19T17:04:45.848Z,21.12
2023-03-19T17:07:12.926Z,21.18
2023-03-19T17:09:39.745Z,21.14
2023-03-19T17:12:13.044Z,21.13
2023-03-19T17:14:39.566Z,21.14
2023-03-19T17:17:17.884Z,21.12
2023-03-19T17:19:46.449Z,21.14
2023-03-19T17:22:14.325Z,21.15
2023-03-19T17:24:40.844Z,21.13
2023-03-19T17:27:07.329Z,21.16
2023-03-19T17:29:33.920Z,21.16
2023-03-19T17:32:04.208Z,21.15
2023-03-19T17:34:35.799Z,21.17
2023-03-19T17:37:10.368Z,21.16
2023-03-19T17:39:36.946Z,21.12
2023-03-19T17:42:16.694Z,21.16
2023-03-19T17:44:43.223Z,21.18
2023-03-19T17:47:10.380Z,21.21
2023-03-19T17:49:37.074Z,21.18
2023-03-19T17:52:03.902Z,21.22
2023-03-19T17:54:30.650Z,21.16
2023-03-19T17:56:57.126Z,21.16
2023-03-19T17:59:23.988Z,21.17
2023-03-19T18:01:52.029Z,21.14
2023-03-19T18:04:21.059Z,21.18
2023-03-19T18:06:54.209Z,21.15
2023-03-19T18:09:23.600Z,21.17
2023-03-19T18:11:50.325Z,21.18
2023-03-19T18:14:16.958Z,21.14
2023-03-19T18:16:44.134Z,21.14
2023-03-19T18:19:28.128Z,21.18
2023-03-19T18:21:54.544Z,21.17
2023-03-19T18:24:21.173Z,21.13
2023-03-19T18:26:47.710Z,21.12
2023-03-19T18:29:14.310Z,21.15
2023-03-19T18:31:43.873Z,21.14
2023-03-19T18:34:13.170Z,21.13
2023-03-19T18:36:40.183Z,21.16
2023-03-19T18:39:12.554Z,21.10
2023-03-19T18:41:40.519Z,21.11
2023-03-19T18:44:07.884Z,21.12
2023-03-19T18:46:35.754Z,21.14
2023-03-19T18:49:06.565Z,21.14
2023-03-19T18:51:33.152Z,21.12
2023-03-19T18:53:59.956Z,21.13
2023-03-19T18:56:29.724Z,21.14
2023-03-19T18:58:58.419Z,21.15
2023-03-19T19:01:26.107Z,21.17
2023-03-19T19:03:53.206Z,21.14
2023-03-19T19:06:40.034Z,21.12
2023-03-19T19:09:12.738Z,21.16
2023-03-19T19:11:41.759Z,21.13
2023-03-19T19:14:18.072Z,21.12
2023-03-19T19:16:44.915Z,21.11
2023-03-19T19:19:23.321Z,21.13
2023-03-19T19:21:51.467Z,21.13
2023-03-19T19:24:18.061Z,21.10
2023-03-19T19:26:46.733Z,21.11
2023-03-19T19:29:25.224Z,21.10
2023-03-19T19:31:53.392Z,21.09
2023-03-19T19:34:20.131Z,21.10
2023-03-19T19:36:46.982Z,21.06
2023-03-19T19:39:13.524Z,21.05
2023-03-19T19:41:43.582Z,21.07
2023-03-19T19:44:21.842Z,21.09
2023-03-19T19:46:48.487Z,21.10
2023-03-19T19:49:15.314Z,21.14
2023-03-19T19:51:42.141Z,21.09
2023-03-19T19:54:08.646Z,21.10
2023-03-19T19:56:35.289Z,21.09
2023-03-19T19:59:04.909Z,21.09
2023-03-19T20:01:31.593Z,21.09
2023-03-19T20:03:58.523Z,21.07
2023-03-19T20:06:27.991Z,21.08
2023-03-19T20:08:54.456Z,21.11
2023-03-19T20:11:24.066Z,21.13
2023-03-19T20:13:54.508Z,21.10
2023-03-19T20:16:23.553Z,21.03
2023-03-19T20:18:53.438Z,21.05
2023-03-19T20:21:20.382Z,21.08
2023-03-19T20:23:47.545Z,21.10
2023-03-19T20:26:16.534Z,21.08
2023-03-19T20:28:44.252Z,21.08
2023-03-19T20:31:32.221Z,21.05
2023-03-19T20:33:58.837Z,21.11
2023-03-19T20:36:26.742Z,21.05
2023-03-19T20:38:55.867Z,21.02
2023-03-19T20:41:26.992Z,21.02
2023-03-19T20:43:56.632Z,21.08
2023-03-19T20:46:24.588Z,21.11
2023-03-19T20:48:51.291Z,21.07
2023-03-19T20:51:21.607Z,21.08
2023-03-19T20:53:49.675Z,21.09
2023-03-19T20:56:18.303Z,21.07
2023-03-19T20:58:45.468Z,21.04
2023-03-19T21:01:12.228Z,21.05
2023-03-19T21:03:41.850Z,21.04
2023-03-19T21:06:22.641Z,21.08
2023-03-19T21:08:53.251Z,21.01
2023-03-19T21:11:31.427Z,21.05
2023-03-19T21:13:58.893Z,21.04
2023-03-19T21:16:27.434Z,21.01
2023-03-19T21:18:53.956Z,21.00
2023-03-19T21:21:35.375Z,21.02
2023-03-19T21:24:11.099Z,21.07
2023-03-19T21:26:39.551Z,21.04
2023-03-19T21:29:19.891Z,21.02
2023-03-19T21:31:47.800Z,21.02
2023-03-19T21:34:16.026Z,21.02
2023-03-19T21:36:42.515Z,21.01
2023-03-19T21:39:09.038Z,21.01
2023-03-19T21:41:38.309Z,21.02
2023-03-19T21:44:14.566Z,21.00
2023-03-19T21:46:42.486Z,21.01
2023-03-19T21:49:11.741Z,21.02
2023-03-19T21:51:38.439Z,21.00
2023-03-19T21:54:05.752Z,21.06
2023-03-19T21:56:40.653Z,21.04
2023-03-19T21:59:14.468Z,21.00
2023-03-19T22:01:41.167Z,20.95
2023-03-19T22:04:07.946Z,20.98
2023-03-19T22:06:34.483Z,20.94
2023-03-19T22:09:00.916Z,20.95
2023-03-19T22:11:28.942Z,21.00
2023-03-19T22:14:09.725Z,20.93
2023-03-19T22:16:36.360Z,20.93
2023-03-19T22:19:04.354Z,20.91
2023-03-19T22:21:32.880Z,20.99
2023-03-19T22:23:59.418Z,20.98
2023-03-19T22:26:31.962Z,20.95
2023-03-19T22:29:01.447Z,20.95
2023-03-19T22:31:28.314Z,20.93
2023-03-19T22:33:55.091Z,20.97
2023-03-19T22:36:21.716Z,20.92
2023-03-19T22:38:49.322Z,20.89
2023-03-19T22:41:21.580Z,20.94
2023-03-19T22:43:48.618Z,20.89
2023-03-19T22:46:18.165Z,20.90
2023-03-19T22:48:47.987Z,20.85
2023-03-19T22:51:17.784Z,20.85
2023-03-19T22:53:45.365Z,20.82
2023-03-19T22:56:13.042Z,20.85
2023-03-19T22:58:40.293Z,20.86
2023-03-19T23:01:39.217Z,20.81
2023-03-19T23:04:17.503Z,20.77
2023-03-19T23:06:44.237Z,20.83
2023-03-19T23:09:19.867Z,20.83
2023-03-19T23:11:48.313Z,20.84
2023-03-19T23:15:08.007Z,20.78
2023-03-19T23:17:36.862Z,20.81
2023-03-19T23:20:18.214Z,20.83
2023-03-19T23:22:46.672Z,20.76
2023-03-19T23:25:18.832Z,20.74
2023-03-19T23:27:46.830Z,20.80
2023-03-19T23:30:20.731Z,20.76
2023-03-19T23:32:47.642Z,20.79
2023-03-19T23:35:21.199Z,20.76
2023-03-19T23:37:48.195Z,20.78
2023-03-19T23:40:16.864Z,20.71
2023-03-19T23:42:47.429Z,20.69
2023-03-19T23:45:28.861Z,20.67
2023-03-19T23:48:02.449Z,20.74
2023-03-19T23:50:29.563Z,20.78
2023-03-19T23:52:57.045Z,20.72
2023-03-19T23:55:24.503Z,20.77
2023-03-19T23:57:51.476Z,20.77
